sensor_id;sensor_type;location;lat;lon;timestamp;pressure;altitude;pressure_sealevel;temperature;humidity
7337;BME280;54510;42.016;23.098;2023-04-30T00:01:42;-21539.94;;;14.76;64.03
7337;BME280;54510;42.016;23.098;2023-04-30T00:04:07;-21540.06;;;14.77;64.48
7337;BME280;54510;42.016;23.098;2023-04-30T00:06:33;-21536.34;;;14.63;65.09
7337;BME280;54510;42.016;23.098;2023-04-30T00:08:58;-21535.25;;;14.59;65.25
7337;BME280;54510;42.016;23.098;2023-04-30T00:11:23;-21533.44;;;14.52;65.54
7337;BME280;54510;42.016;23.098;2023-04-30T00:13:49;-21537.19;;;14.66;65.23
7337;BME280;54510;42.016;23.098;2023-04-30T00:16:15;-21537.31;;;14.67;65.01
7337;BME280;54510;42.016;23.098;2023-04-30T00:18:41;-21541.59;;;14.82;64.76
7337;BME280;54510;42.016;23.098;2023-04-30T00:21:06;-21540.34;;;14.78;64.70
7337;BME280;54510;42.016;23.098;2023-04-30T00:23:31;-21543.41;;;14.89;64.30
7337;BME280;54510;42.016;23.098;2023-04-30T00:25:57;-21542.16;;;14.84;64.14
7337;BME280;54510;42.016;23.098;2023-04-30T00:28:22;-21540.91;;;14.80;65.03
7337;BME280;54510;42.016;23.098;2023-04-30T00:30:47;-21544.38;;;14.92;64.44
7337;BME280;54510;42.016;23.098;2023-04-30T00:33:12;-21544.78;;;14.94;63.96
7337;BME280;54510;42.016;23.098;2023-04-30T00:35:38;-21544.78;;;14.94;63.86
7337;BME280;54510;42.016;23.098;2023-04-30T00:38:03;-21543.94;;;14.91;63.28
7337;BME280;54510;42.016;23.098;2023-04-30T00:40:28;-21547.53;;;15.04;62.78
7337;BME280;54510;42.016;23.098;2023-04-30T00:42:54;-21547.69;;;15.05;62.65
7337;BME280;54510;42.016;23.098;2023-04-30T00:45:22;-21548.63;;;15.08;62.12
7337;BME280;54510;42.016;23.098;2023-04-30T00:47:47;-21545.03;;;14.95;62.78
7337;BME280;54510;42.016;23.098;2023-04-30T00:50:13;-21544.50;;;14.93;62.89
7337;BME280;54510;42.016;23.098;2023-04-30T00:52:40;-21543.53;;;14.89;63.33
7337;BME280;54510;42.016;23.098;2023-04-30T00:55:06;-21544.50;;;14.93;63.50
7337;BME280;54510;42.016;23.098;2023-04-30T00:57:31;-21542.97;;;14.87;62.70
7337;BME280;54510;42.016;23.098;2023-04-30T00:59:58;-21544.50;;;14.93;62.36
7337;BME280;54510;42.016;23.098;2023-04-30T01:02:23;-21543.41;;;14.89;62.23
7337;BME280;54510;42.016;23.098;2023-04-30T01:04:49;-21541.47;;;14.82;62.21
7337;BME280;54510;42.016;23.098;2023-04-30T01:07:14;-21541.31;;;14.81;62.31
7337;BME280;54510;42.016;23.098;2023-04-30T01:09:40;-21545.19;;;14.95;61.79
7337;BME280;54510;42.016;23.098;2023-04-30T01:17:22;-21543.53;;;14.89;61.45
7337;BME280;54510;42.016;23.098;2023-04-30T01:19:49;-21542.69;;;14.86;61.64
7337;BME280;54510;42.016;23.098;2023-04-30T01:30:10;-21542.97;;;14.87;61.74
7337;BME280;54510;42.016;23.098;2023-04-30T01:32:36;-21542.00;;;14.84;61.91
7337;BME280;54510;42.016;23.098;2023-04-30T01:35:01;-21542.28;;;14.85;62.25
7337;BME280;54510;42.016;23.098;2023-04-30T01:37:38;-21542.56;;;14.86;62.16
7337;BME280;54510;42.016;23.098;2023-04-30T01:40:11;-21543.13;;;14.88;62.08
7337;BME280;54510;42.016;23.098;2023-04-30T01:55:57;-21538.41;;;14.71;64.05
7337;BME280;54510;42.016;23.098;2023-04-30T01:58:04;-21537.19;;;14.66;64.74
7337;BME280;54510;42.016;23.098;2023-04-30T02:00:31;-21534.97;;;14.58;65.48
7337;BME280;54510;42.016;23.098;2023-04-30T02:02:57;-21533.72;;;14.53;65.58
7337;BME280;54510;42.016;23.098;2023-04-30T02:05:23;-21529.84;;;14.39;66.28
7337;BME280;54510;42.016;23.098;2023-04-30T02:07:49;-21526.69;;;14.28;67.06
7337;BME280;54510;42.016;23.098;2023-04-30T02:10:16;-21530.69;;;14.42;66.76
7337;BME280;54510;42.016;23.098;2023-04-30T02:12:41;-21531.53;;;14.45;66.29
7337;BME280;54510;42.016;23.098;2023-04-30T02:15:06;-21526.94;;;14.29;66.88
7337;BME280;54510;42.016;23.098;2023-04-30T02:17:32;-21524.75;;;14.20;67.46
7337;BME280;54510;42.016;23.098;2023-04-30T02:19:58;-21527.78;;;14.32;66.93
7337;BME280;54510;42.016;23.098;2023-04-30T02:22:23;-21521.84;;;14.10;67.61
7337;BME280;54510;42.016;23.098;2023-04-30T02:24:49;-21523.09;;;14.14;67.57
7337;BME280;54510;42.016;23.098;2023-04-30T02:27:15;-21526.41;;;14.27;67.33
7337;BME280;54510;42.016;23.098;2023-04-30T02:29:40;-21527.91;;;14.32;67.62
7337;BME280;54510;42.016;23.098;2023-04-30T02:32:05;-21517.97;;;13.96;67.99
7337;BME280;54510;42.016;23.098;2023-04-30T02:34:31;-21516.72;;;13.91;68.27
7337;BME280;54510;42.016;23.098;2023-04-30T02:36:56;-21518.53;;;13.98;68.09
7337;BME280;54510;42.016;23.098;2023-04-30T02:39:21;-21512.72;;;13.76;68.81
7337;BME280;54510;42.016;23.098;2023-04-30T02:41:46;-21514.38;;;13.82;68.63
7337;BME280;54510;42.016;23.098;2023-04-30T02:44:12;-21515.63;;;13.87;68.10
7337;BME280;54510;42.016;23.098;2023-04-30T02:46:37;-21509.81;;;13.66;69.02
7337;BME280;54510;42.016;23.098;2023-04-30T02:49:02;-21505.53;;;13.50;69.65
7337;BME280;54510;42.016;23.098;2023-04-30T02:51:28;-21505.53;;;13.50;69.56
7337;BME280;54510;42.016;23.098;2023-04-30T02:53:53;-21503.31;;;13.42;69.82
7337;BME280;54510;42.016;23.098;2023-04-30T02:56:18;-21495.28;;;13.13;70.56
7337;BME280;54510;42.016;23.098;2023-04-30T02:58:44;-21494.59;;;13.10;71.01
7337;BME280;54510;42.016;23.098;2023-04-30T03:01:09;-21493.63;;;13.06;70.85
7337;BME280;54510;42.016;23.098;2023-04-30T03:03:34;-21486.41;;;12.80;71.54
7337;BME280;54510;42.016;23.098;2023-04-30T03:05:59;-21488.34;;;12.87;71.76
7337;BME280;54510;42.016;23.098;2023-04-30T03:08:25;-21488.91;;;12.89;71.91
7337;BME280;54510;42.016;23.098;2023-04-30T03:10:50;-21483.09;;;12.68;71.93
7337;BME280;54510;42.016;23.098;2023-04-30T03:13:16;-21480.88;;;12.60;72.41
7337;BME280;54510;42.016;23.098;2023-04-30T03:15:41;-21476.03;;;12.42;72.84
7337;BME280;54510;42.016;23.098;2023-04-30T03:18:07;-21477.84;;;12.49;72.60
7337;BME280;54510;42.016;23.098;2023-04-30T03:20:32;-21482.81;;;12.67;71.75
7337;BME280;54510;42.016;23.098;2023-04-30T03:22:57;-21479.91;;;12.56;71.60
7337;BME280;54510;42.016;23.098;2023-04-30T03:25:22;-21477.84;;;12.49;71.90
7337;BME280;54510;42.016;23.098;2023-04-30T03:27:48;-21475.63;;;12.41;72.45
7337;BME280;54510;42.016;23.098;2023-04-30T03:30:13;-21476.03;;;12.42;72.04
7337;BME280;54510;42.016;23.098;2023-04-30T03:32:38;-21474.78;;;12.38;72.10
7337;BME280;54510;42.016;23.098;2023-04-30T03:35:04;-21479.09;;;12.53;71.74
7337;BME280;54510;42.016;23.098;2023-04-30T03:37:29;-21481.16;;;12.61;71.54
7337;BME280;54510;42.016;23.098;2023-04-30T03:39:55;-21481.16;;;12.61;71.23
7337;BME280;54510;42.016;23.098;2023-04-30T03:42:20;-21482.81;;;12.67;70.86
7337;BME280;54510;42.016;23.098;2023-04-30T03:44:45;-21480.75;;;12.59;71.08
7337;BME280;54510;42.016;23.098;2023-04-30T03:47:10;-21478.53;;;12.51;71.30
7337;BME280;54510;42.016;23.098;2023-04-30T03:49:36;-21474.78;;;12.38;71.93
7337;BME280;54510;42.016;23.098;2023-04-30T03:52:01;-21476.59;;;12.44;71.73
7337;BME280;54510;42.016;23.098;2023-04-30T03:54:27;-21475.34;;;12.40;71.70
7337;BME280;54510;42.016;23.098;2023-04-30T03:56:52;-21476.03;;;12.42;71.16
7337;BME280;54510;42.016;23.098;2023-04-30T03:59:18;-21476.59;;;12.44;71.03
7337;BME280;54510;42.016;23.098;2023-04-30T04:01:43;-21479.91;;;12.56;70.63
7337;BME280;54510;42.016;23.098;2023-04-30T04:04:08;-21485.88;;;12.78;69.64
7337;BME280;54510;42.016;23.098;2023-04-30T04:06:34;-21487.25;;;12.83;69.51
7337;BME280;54510;42.016;23.098;2023-04-30T04:09:00;-21493.63;;;13.06;68.97
7337;BME280;54510;42.016;23.098;2023-04-30T04:11:25;-21498.59;;;13.25;68.18
7337;BME280;54510;42.016;23.098;2023-04-30T04:13:50;-21489.75;;;12.92;68.67
7337;BME280;54510;42.016;23.098;2023-04-30T04:16:15;-21494.03;;;13.08;68.20
7337;BME280;54510;42.016;23.098;2023-04-30T04:18:41;-21497.22;;;13.20;67.86
7337;BME280;54510;42.016;23.098;2023-04-30T04:21:06;-21494.31;;;13.09;67.73
7337;BME280;54510;42.016;23.098;2023-04-30T04:23:31;-21484.75;;;12.74;69.74
7337;BME280;54510;42.016;23.098;2023-04-30T04:25:57;-21495.13;;;13.12;69.32
7337;BME280;54510;42.016;23.098;2023-04-30T04:28:22;-21496.81;;;13.18;69.32
7337;BME280;54510;42.016;23.098;2023-04-30T04:30:47;-21494.31;;;13.09;69.63
7337;BME280;54510;42.016;23.098;2023-04-30T04:33:13;-21496.53;;;13.17;69.12
7337;BME280;54510;42.016;23.098;2023-04-30T04:35:38;-21506.50;;;13.54;68.40
7337;BME280;54510;42.016;23.098;2023-04-30T04:38:03;-21507.03;;;13.56;67.96
7337;BME280;54510;42.016;23.098;2023-04-30T04:40:29;-21507.88;;;13.59;68.34
7337;BME280;54510;42.016;23.098;2023-04-30T04:42:54;-21510.38;;;13.68;67.34
7337;BME280;54510;42.016;23.098;2023-04-30T04:45:19;-21512.03;;;13.74;67.78
7337;BME280;54510;42.016;23.098;2023-04-30T04:47:45;-21512.44;;;13.75;67.61
7337;BME280;54510;42.016;23.098;2023-04-30T04:50:10;-21514.66;;;13.83;68.27
7337;BME280;54510;42.016;23.098;2023-04-30T04:52:36;-21518.25;;;13.97;67.91
7337;BME280;54510;42.016;23.098;2023-04-30T04:55:01;-21518.81;;;13.99;68.14
7337;BME280;54510;42.016;23.098;2023-04-30T04:57:26;-21520.59;;;14.05;67.89
7337;BME280;54510;42.016;23.098;2023-04-30T04:59:52;-21518.53;;;13.98;68.03
7337;BME280;54510;42.016;23.098;2023-04-30T05:02:17;-21519.91;;;14.03;68.30
7337;BME280;54510;42.016;23.098;2023-04-30T05:04:42;-21523.34;;;14.15;68.00
7337;BME280;54510;42.016;23.098;2023-04-30T05:07:08;-21522.41;;;14.12;67.93
7337;BME280;54510;42.016;23.098;2023-04-30T05:09:33;-21523.34;;;14.15;68.10
7337;BME280;54510;42.016;23.098;2023-04-30T05:11:58;-21522.13;;;14.11;68.15
7337;BME280;54510;42.016;23.098;2023-04-30T05:14:23;-21525.00;;;14.21;68.12
7337;BME280;54510;42.016;23.098;2023-04-30T05:16:49;-21528.47;;;14.34;67.82
7337;BME280;54510;42.016;23.098;2023-04-30T05:19:14;-21528.75;;;14.35;67.71
7337;BME280;54510;42.016;23.098;2023-04-30T05:21:39;-21526.53;;;14.27;67.81
7337;BME280;54510;42.016;23.098;2023-04-30T05:24:05;-21527.38;;;14.30;67.59
7337;BME280;54510;42.016;23.098;2023-04-30T05:26:30;-21528.47;;;14.34;67.82
7337;BME280;54510;42.016;23.098;2023-04-30T05:28:55;-21534.41;;;14.56;66.95
7337;BME280;54510;42.016;23.098;2023-04-30T05:31:21;-21535.53;;;14.60;66.72
7337;BME280;54510;42.016;23.098;2023-04-30T05:33:46;-21537.03;;;14.66;66.81
7337;BME280;54510;42.016;23.098;2023-04-30T05:36:12;-21539.53;;;14.75;66.65
7337;BME280;54510;42.016;23.098;2023-04-30T05:38:37;-21540.34;;;14.78;66.34
7337;BME280;54510;42.016;23.098;2023-04-30T05:41:02;-21543.66;;;14.90;65.71
7337;BME280;54510;42.016;23.098;2023-04-30T05:43:28;-21544.38;;;14.92;65.61
7337;BME280;54510;42.016;23.098;2023-04-30T05:45:53;-21538.28;;;14.70;65.77
7337;BME280;54510;42.016;23.098;2023-04-30T05:48:18;-21534.41;;;14.56;66.33
7337;BME280;54510;42.016;23.098;2023-04-30T05:50:44;-21537.44;;;14.67;66.21
7337;BME280;54510;42.016;23.098;2023-04-30T05:53:09;-21534.97;;;14.58;66.66
7337;BME280;54510;42.016;23.098;2023-04-30T05:55:34;-21537.44;;;14.67;66.49
7337;BME280;54510;42.016;23.098;2023-04-30T05:58:00;-21546.56;;;15.00;65.68
7337;BME280;54510;42.016;23.098;2023-04-30T06:00:25;-21556.78;;;15.38;64.52
7337;BME280;54510;42.016;23.098;2023-04-30T06:02:50;-21555.53;;;15.33;63.74
7337;BME280;54510;42.016;23.098;2023-04-30T06:05:17;-21553.59;;;15.26;64.14
7337;BME280;54510;42.016;23.098;2023-04-30T06:07:42;-21561.75;;;15.56;63.32
7337;BME280;54510;42.016;23.098;2023-04-30T06:10:07;-21569.06;;;15.83;62.57
7337;BME280;54510;42.016;23.098;2023-04-30T06:12:33;-21572.25;;;15.95;61.84
7337;BME280;54510;42.016;23.098;2023-04-30T06:14:58;-21573.47;;;15.99;61.65
7337;BME280;54510;42.016;23.098;2023-04-30T06:17:23;-21575.13;;;16.05;61.56
7337;BME280;54510;42.016;23.098;2023-04-30T06:19:49;-21576.78;;;16.11;61.14
7337;BME280;54510;42.016;23.098;2023-04-30T06:22:15;-21574.59;;;16.03;60.97
7337;BME280;54510;42.016;23.098;2023-04-30T06:24:40;-21579.81;;;16.23;60.57
7337;BME280;54510;42.016;23.098;2023-04-30T06:27:05;-21584.22;;;16.39;60.38
7337;BME280;54510;42.016;23.098;2023-04-30T06:29:31;-21587.81;;;16.52;60.15
7337;BME280;54510;42.016;23.098;2023-04-30T06:31:56;-21587.13;;;16.49;59.02
7337;BME280;54510;42.016;23.098;2023-04-30T06:34:21;-21586.97;;;16.49;59.21
7337;BME280;54510;42.016;23.098;2023-04-30T06:36:47;-21584.78;;;16.41;59.10
7337;BME280;54510;42.016;23.098;2023-04-30T06:39:15;-21584.66;;;16.40;58.66
7337;BME280;54510;42.016;23.098;2023-04-30T06:41:41;-21577.06;;;16.12;59.61
7337;BME280;54510;42.016;23.098;2023-04-30T06:44:07;-21575.97;;;16.08;60.30
7337;BME280;54510;42.016;23.098;2023-04-30T06:46:32;-21573.75;;;16.00;59.86
7337;BME280;54510;42.016;23.098;2023-04-30T06:48:58;-21577.88;;;16.15;59.35
7337;BME280;54510;42.016;23.098;2023-04-30T06:51:24;-21583.94;;;16.38;59.09
7337;BME280;54510;42.016;23.098;2023-04-30T06:53:49;-21586.84;;;16.48;58.85
7337;BME280;54510;42.016;23.098;2023-04-30T06:56:14;-21591.53;;;16.66;58.38
7337;BME280;54510;42.016;23.098;2023-04-30T06:58:40;-21599.53;;;16.95;57.11
7337;BME280;54510;42.016;23.098;2023-04-30T07:01:06;-21605.84;;;17.18;56.19
7337;BME280;54510;42.016;23.098;2023-04-30T07:03:32;-21609.84;;;17.33;55.64
7337;BME280;54510;42.016;23.098;2023-04-30T07:05:57;-21608.47;;;17.28;54.31
7337;BME280;54510;42.016;23.098;2023-04-30T07:08:23;-21606.69;;;17.21;54.41
7337;BME280;54510;42.016;23.098;2023-04-30T07:10:48;-21609.84;;;17.33;54.55
7337;BME280;54510;42.016;23.098;2023-04-30T07:13:13;-21608.19;;;17.27;53.50
7337;BME280;54510;42.016;23.098;2023-04-30T07:15:38;-21608.47;;;17.28;53.36
7337;BME280;54510;42.016;23.098;2023-04-30T07:18:04;-21613.84;;;17.48;53.71
7337;BME280;54510;42.016;23.098;2023-04-30T07:20:29;-21612.06;;;17.41;53.52
7337;BME280;54510;42.016;23.098;2023-04-30T07:22:55;-21610.94;;;17.37;53.05
7337;BME280;54510;42.016;23.098;2023-04-30T07:25:20;-21609.16;;;17.30;52.43
7337;BME280;54510;42.016;23.098;2023-04-30T07:27:45;-21612.31;;;17.42;52.92
7337;BME280;54510;42.016;23.098;2023-04-30T07:30:11;-21613.44;;;17.46;53.58
7337;BME280;54510;42.016;23.098;2023-04-30T07:32:36;-21614.53;;;17.50;53.41
7337;BME280;54510;42.016;23.098;2023-04-30T07:35:04;-21620.44;;;17.72;53.25
7337;BME280;54510;42.016;23.098;2023-04-30T07:37:30;-21621.97;;;17.77;53.61
7337;BME280;54510;42.016;23.098;2023-04-30T07:39:55;-21627.31;;;17.97;52.11
7337;BME280;54510;42.016;23.098;2023-04-30T07:42:21;-21634.34;;;18.23;51.63
7337;BME280;54510;42.016;23.098;2023-04-30T07:44:46;-21639.69;;;18.43;51.12
7337;BME280;54510;42.016;23.098;2023-04-30T07:47:13;-21645.88;;;18.66;49.40
7337;BME280;54510;42.016;23.098;2023-04-30T07:49:38;-21655.09;;;19.00;50.49
7337;BME280;54510;42.016;23.098;2023-04-30T07:52:03;-21659.22;;;19.15;49.33
7337;BME280;54510;42.016;23.098;2023-04-30T07:54:29;-21663.59;;;19.31;48.86
7337;BME280;54510;42.016;23.098;2023-04-30T07:56:55;-21667.72;;;19.46;48.33
7337;BME280;54510;42.016;23.098;2023-04-30T07:59:20;-21669.38;;;19.52;47.42
7337;BME280;54510;42.016;23.098;2023-04-30T08:01:48;-21671.84;;;19.61;46.64
7337;BME280;54510;42.016;23.098;2023-04-30T08:04:13;-21672.53;;;19.64;46.70
7337;BME280;54510;42.016;23.098;2023-04-30T08:06:38;-21670.06;;;19.55;46.70
7337;BME280;54510;42.016;23.098;2023-04-30T08:09:04;-21670.34;;;19.56;46.73
7337;BME280;54510;42.016;23.098;2023-04-30T08:11:29;-21673.06;;;19.66;46.70
7337;BME280;54510;42.016;23.098;2023-04-30T08:13:54;-21675.69;;;19.76;46.50
7337;BME280;54510;42.016;23.098;2023-04-30T08:16:20;-21676.38;;;19.78;46.39
7337;BME280;54510;42.016;23.098;2023-04-30T08:18:45;-21681.59;;;19.97;46.15
7337;BME280;54510;42.016;23.098;2023-04-30T08:21:11;-21679.66;;;19.90;46.23
7337;BME280;54510;42.016;23.098;2023-04-30T08:23:36;-21681.16;;;19.96;46.19
7337;BME280;54510;42.016;23.098;2023-04-30T08:26:02;-21680.06;;;19.92;45.94
7337;BME280;54510;42.016;23.098;2023-04-30T08:28:27;-21689.81;;;20.28;45.87
7337;BME280;54510;42.016;23.098;2023-04-30T08:30:52;-21695.97;;;20.50;45.88
7337;BME280;54510;42.016;23.098;2023-04-30T08:33:18;-21693.94;;;20.43;45.28
7337;BME280;54510;42.016;23.098;2023-04-30T08:35:43;-21687.06;;;20.18;45.44
7337;BME280;54510;42.016;23.098;2023-04-30T08:38:08;-21688.44;;;20.23;44.74
7337;BME280;54510;42.016;23.098;2023-04-30T08:40:34;-21689.00;;;20.25;43.98
7337;BME280;54510;42.016;23.098;2023-04-30T08:43:07;-21694.47;;;20.45;44.00
7337;BME280;54510;42.016;23.098;2023-04-30T08:45:33;-21705.97;;;20.87;42.93
7337;BME280;54510;42.016;23.098;2023-04-30T08:47:59;-21709.13;;;20.99;42.46
7337;BME280;54510;42.016;23.098;2023-04-30T08:50:27;-21700.22;;;20.66;43.14
7337;BME280;54510;42.016;23.098;2023-04-30T08:52:52;-21712.41;;;21.11;42.31
7337;BME280;54510;42.016;23.098;2023-04-30T08:55:18;-21708.31;;;20.96;42.75
7337;BME280;54510;42.016;23.098;2023-04-30T08:57:43;-21699.13;;;20.62;43.63
7337;BME280;54510;42.016;23.098;2023-04-30T09:00:09;-21699.28;;;20.63;43.41
7337;BME280;54510;42.016;23.098;2023-04-30T09:02:34;-21714.19;;;21.18;43.04
7337;BME280;54510;42.016;23.098;2023-04-30T09:05:06;-21714.63;;;21.19;42.25
7337;BME280;54510;42.016;23.098;2023-04-30T09:07:33;-21709.41;;;21.00;41.43
7337;BME280;54510;42.016;23.098;2023-04-30T09:09:59;-21701.06;;;20.69;41.30
7337;BME280;54510;42.016;23.098;2023-04-30T09:12:24;-21687.06;;;20.18;42.11
7337;BME280;54510;42.016;23.098;2023-04-30T09:14:57;-21709.81;;;21.02;41.26
7337;BME280;54510;42.016;23.098;2023-04-30T09:17:24;-21728.44;;;21.71;40.30
7337;BME280;54510;42.016;23.098;2023-04-30T09:19:49;-21716.13;;;21.25;39.93
7337;BME280;54510;42.016;23.098;2023-04-30T09:22:21;-21721.31;;;21.44;39.61
7337;BME280;54510;42.016;23.098;2023-04-30T09:24:47;-21715.56;;;21.23;40.29
7337;BME280;54510;42.016;23.098;2023-04-30T09:27:20;-21712.00;;;21.10;40.65
7337;BME280;54510;42.016;23.098;2023-04-30T09:29:45;-21701.31;;;20.70;40.92
7337;BME280;54510;42.016;23.098;2023-04-30T09:32:11;-21705.44;;;20.85;41.37
7337;BME280;54510;42.016;23.098;2023-04-30T09:34:36;-21717.50;;;21.30;40.73
7337;BME280;54510;42.016;23.098;2023-04-30T09:37:02;-21717.09;;;21.28;40.57
7337;BME280;54510;42.016;23.098;2023-04-30T09:39:28;-21694.47;;;20.45;41.55
7337;BME280;54510;42.016;23.098;2023-04-30T09:42:05;-21694.63;;;20.45;41.93
7337;BME280;54510;42.016;23.098;2023-04-30T09:44:31;-21709.28;;;21.00;40.94
7337;BME280;54510;42.016;23.098;2023-04-30T09:46:56;-21708.72;;;20.98;41.13
7337;BME280;54510;42.016;23.098;2023-04-30T09:49:22;-21694.34;;;20.44;41.51
7337;BME280;54510;42.016;23.098;2023-04-30T09:51:54;-21692.84;;;20.39;42.12
7337;BME280;54510;42.016;23.098;2023-04-30T09:54:21;-21707.63;;;20.94;40.84
7337;BME280;54510;42.016;23.098;2023-04-30T09:56:48;-21704.88;;;20.83;40.56
7337;BME280;54510;42.016;23.098;2023-04-30T09:59:14;-21717.63;;;21.31;40.51
7337;BME280;54510;42.016;23.098;2023-04-30T10:01:41;-21717.50;;;21.30;39.65
7337;BME280;54510;42.016;23.098;2023-04-30T10:04:06;-21712.81;;;21.13;40.44
7337;BME280;54510;42.016;23.098;2023-04-30T10:06:32;-21719.00;;;21.36;39.36
7337;BME280;54510;42.016;23.098;2023-04-30T10:08:59;-21720.38;;;21.41;40.16
7337;BME280;54510;42.016;23.098;2023-04-30T10:11:27;-21734.59;;;21.93;39.12
7337;BME280;54510;42.016;23.098;2023-04-30T10:16:26;-21740.06;;;22.14;38.11
7337;BME280;54510;42.016;23.098;2023-04-30T10:18:54;-21734.31;;;21.92;38.28
7337;BME280;54510;42.016;23.098;2023-04-30T10:21:22;-21732.81;;;21.87;37.92
7337;BME280;54510;42.016;23.098;2023-04-30T10:23:48;-21736.66;;;22.01;36.92
7337;BME280;54510;42.016;23.098;2023-04-30T10:26:15;-21737.47;;;22.04;37.44
7337;BME280;54510;42.016;23.098;2023-04-30T10:28:42;-21728.03;;;21.69;37.84
7337;BME280;54510;42.016;23.098;2023-04-30T10:31:07;-21736.38;;;22.00;36.03
7337;BME280;54510;42.016;23.098;2023-04-30T10:36:03;-21728.97;;;21.73;37.07
7337;BME280;54510;42.016;23.098;2023-04-30T10:38:30;-21738.28;;;22.07;36.58
7337;BME280;54510;42.016;23.098;2023-04-30T10:40:56;-21752.63;;;22.60;35.71
7337;BME280;54510;42.016;23.098;2023-04-30T10:43:23;-21757.69;;;22.79;35.66
7337;BME280;54510;42.016;23.098;2023-04-30T10:45:48;-21738.44;;;22.08;36.09
7337;BME280;54510;42.016;23.098;2023-04-30T10:48:14;-21736.66;;;22.01;35.83
7337;BME280;54510;42.016;23.098;2023-04-30T10:50:40;-21733.09;;;21.88;35.91
7337;BME280;54510;42.016;23.098;2023-04-30T10:53:06;-21734.44;;;21.93;36.60
7337;BME280;54510;42.016;23.098;2023-04-30T10:55:31;-21738.56;;;22.08;37.01
7337;BME280;54510;42.016;23.098;2023-04-30T10:57:57;-21762.06;;;22.95;35.89
7337;BME280;54510;42.016;23.098;2023-04-30T11:00:24;-21761.78;;;22.94;35.31
7337;BME280;54510;42.016;23.098;2023-04-30T11:02:52;-21768.22;;;23.18;35.22
7337;BME280;54510;42.016;23.098;2023-04-30T11:05:19;-21758.94;;;22.83;35.63
7337;BME280;54510;42.016;23.098;2023-04-30T11:07:47;-21753.72;;;22.64;35.90
7337;BME280;54510;42.016;23.098;2023-04-30T11:10:15;-21734.19;;;21.92;39.27
7337;BME280;54510;42.016;23.098;2023-04-30T11:12:46;-21714.34;;;21.18;41.04
7337;BME280;54510;42.016;23.098;2023-04-30T11:15:12;-21703.50;;;20.78;41.75
7337;BME280;54510;42.016;23.098;2023-04-30T11:17:37;-21696.53;;;20.53;42.57
7337;BME280;54510;42.016;23.098;2023-04-30T11:20:03;-21698.31;;;20.59;42.90
7337;BME280;54510;42.016;23.098;2023-04-30T11:22:29;-21693.50;;;20.41;42.80
7337;BME280;54510;42.016;23.098;2023-04-30T11:27:25;-21699.13;;;20.62;42.21
7337;BME280;54510;42.016;23.098;2023-04-30T11:29:51;-21693.94;;;20.43;42.32
7337;BME280;54510;42.016;23.098;2023-04-30T11:32:17;-21691.59;;;20.34;43.33
7337;BME280;54510;42.016;23.098;2023-04-30T11:34:42;-21685.16;;;20.10;43.67
7337;BME280;54510;42.016;23.098;2023-04-30T11:37:09;-21705.84;;;20.87;41.80
7337;BME280;54510;42.016;23.098;2023-04-30T11:39:36;-21707.63;;;20.94;41.47
7337;BME280;54510;42.016;23.098;2023-04-30T11:42:02;-21708.31;;;20.96;40.69
7337;BME280;54510;42.016;23.098;2023-04-30T11:44:27;-21712.16;;;21.10;40.65
7337;BME280;54510;42.016;23.098;2023-04-30T11:46:52;-21699.97;;;20.65;40.10
7337;BME280;54510;42.016;23.098;2023-04-30T11:49:21;-21710.22;;;21.03;41.47
7337;BME280;54510;42.016;23.098;2023-04-30T11:51:49;-21717.50;;;21.30;41.12
7337;BME280;54510;42.016;23.098;2023-04-30T11:54:15;-21715.84;;;21.24;40.83
7337;BME280;54510;42.016;23.098;2023-04-30T11:56:44;-21724.19;;;21.55;40.38
7337;BME280;54510;42.016;23.098;2023-04-30T11:59:11;-21718.16;;;21.33;40.71
7337;BME280;54510;42.016;23.098;2023-04-30T12:01:36;-21729.41;;;21.74;40.67
7337;BME280;54510;42.016;23.098;2023-04-30T12:04:02;-21737.75;;;22.05;40.28
7337;BME280;54510;42.016;23.098;2023-04-30T12:06:28;-21738.44;;;22.08;40.91
7337;BME280;54510;42.016;23.098;2023-04-30T12:08:54;-21754.13;;;22.66;39.31
7337;BME280;54510;42.016;23.098;2023-04-30T12:11:29;-21765.34;;;23.07;38.45
7337;BME280;54510;42.016;23.098;2023-04-30T12:13:55;-21774.34;;;23.41;37.73
7337;BME280;54510;42.016;23.098;2023-04-30T12:16:22;-21780.91;;;23.65;36.93
7337;BME280;54510;42.016;23.098;2023-04-30T12:18:48;-21779.13;;;23.58;36.67
7337;BME280;54510;42.016;23.098;2023-04-30T12:21:13;-21770.81;;;23.28;37.29
7337;BME280;54510;42.016;23.098;2023-04-30T12:23:39;-21744.31;;;22.29;34.26
7337;BME280;54510;42.016;23.098;2023-04-30T12:26:04;-21746.91;;;22.39;33.50
7337;BME280;54510;42.016;23.098;2023-04-30T12:28:30;-21759.06;;;22.84;34.29
7337;BME280;54510;42.016;23.098;2023-04-30T12:30:55;-21765.06;;;23.06;34.19
7337;BME280;54510;42.016;23.098;2023-04-30T12:33:20;-21763.16;;;22.99;35.57
7337;BME280;54510;42.016;23.098;2023-04-30T12:35:46;-21772.16;;;23.33;34.48
7337;BME280;54510;42.016;23.098;2023-04-30T12:38:14;-21782.13;;;23.70;34.05
7337;BME280;54510;42.016;23.098;2023-04-30T12:40:45;-21768.34;;;23.18;35.00
7337;BME280;54510;42.016;23.098;2023-04-30T12:43:13;-21776.53;;;23.49;34.61
7337;BME280;54510;42.016;23.098;2023-04-30T12:45:51;-21775.59;;;23.45;35.37
7337;BME280;54510;42.016;23.098;2023-04-30T12:48:21;-21784.88;;;23.80;34.71
7337;BME280;54510;42.016;23.098;2023-04-30T12:50:59;-21783.91;;;23.76;34.68
7337;BME280;54510;42.016;23.098;2023-04-30T12:53:29;-21798.50;;;24.30;33.86
7337;BME280;54510;42.016;23.098;2023-04-30T12:56:10;-21801.38;;;24.41;33.47
7337;BME280;54510;42.016;23.098;2023-04-30T12:58:40;-21804.91;;;24.54;33.30
7337;BME280;54510;42.016;23.098;2023-04-30T13:01:12;-21809.53;;;24.71;33.29
7337;BME280;54510;42.016;23.098;2023-04-30T13:03:37;-21815.41;;;24.93;33.26
7337;BME280;54510;42.016;23.098;2023-04-30T13:06:03;-21808.72;;;24.68;33.13
7337;BME280;54510;42.016;23.098;2023-04-30T13:08:30;-21810.34;;;24.74;32.67
7337;BME280;54510;42.016;23.098;2023-04-30T13:10:56;-21829.41;;;25.45;32.23
7337;BME280;54510;42.016;23.098;2023-04-30T13:13:21;-21826.44;;;25.34;32.13
7337;BME280;54510;42.016;23.098;2023-04-30T13:15:48;-21823.97;;;25.25;31.92
7337;BME280;54510;42.016;23.098;2023-04-30T13:18:13;-21832.97;;;25.59;31.65